Pinetop, Arizona
Current Conditions -  °F | °C
As of 6:15 PM on Saturday 22 Nov 2014 (Local Time) from KSOW Reporting Station
Clear Clear  
Wind Chill: 37°   Ceiling: Unl
Heat Index: 43°   Visibility: 10mi
Dew Point: 16°   Wind: 12mph
Humidity: 34%   Direction: 200°SSW
Pressure: 30.05"   Gusts: NA
Location:  34.13°N, 109.94°W
Report Text: KSOW 230115Z AUTO 20010KT 10SM CLR 06/M09 A3005 RMK AO2
Loading
Personal Weather Stations






























Interactive Weather Map New forecast layout! Learn more

10-Day Weather Forecast

Advertisements
Track Severe Weather on mobile